KSMX/SMX METAR and TAF weather

Enter ICAO airport designator
Station Type Date Time Source
KSMX METAR 2021/02/25 15:51 UTC NOAA

KSMX 251551Z 00000KT 10SM CLR 10/M02 A3018 RMK AO2 SLP223 T01001022


Station Type Date Time Source
KSMX Decoded METAR 2021/02/25 15:51 UTC NOAA

SANTA MARIA PUBLIC AIRPORT, CA, United States (KSMX) 34-54N 120-28W 74M
Feb 25, 2021 - 10:51 AM EST / 2021.02.25 1551 UTC
Wind: Calm:0
Visibility: 10 mile(s):0
Sky conditions: clear
Temperature: 50.0 F (10.0 C)
Dew Point: 28.0 F (-2.2 C)
Relative Humidity: 42%
Pressure (altimeter): 30.18 in. Hg (1022 hPa)
ob: KSMX 251551Z 00000KT 10SM CLR 10/M02 A3018 RMK AO2 SLP223 T01001022
cycle: 16

Station Type Date Time Source
KSMX TAF 2021/02/25 14:12 UTC NOAA

TAF
AMD KSMX 251411Z 2514/2612 04008KT P6SM SKC
FM251800 VRB03KT P6SM SKC
FM252100 31012KT P6SM SKC
FM260300 VRB03KT P6SM SKC
FM260900 35008KT P6SM SKC

Example: see airport list